createdAt,value
2023-02-06T00:00:38.287Z,11.33
2023-02-06T00:01:31.096Z,11.50
2023-02-06T00:02:26.268Z,10.70
2023-02-06T00:03:20.321Z,10.83
2023-02-06T00:04:16.034Z,10.57
2023-02-06T00:05:08.887Z,10.93
2023-02-06T00:06:04.325Z,10.40
2023-02-06T00:06:57.093Z,10.77
2023-02-06T00:07:54.848Z,10.60
2023-02-06T00:08:50.015Z,10.40
2023-02-06T00:09:45.220Z,10.77
2023-02-06T00:10:37.806Z,10.13
2023-02-06T00:11:32.997Z,10.80
2023-02-06T00:12:25.567Z,10.02
2023-02-06T00:13:20.965Z,9.53
2023-02-06T00:14:13.527Z,10.20
2023-02-06T00:15:09.436Z,9.40
2023-02-06T00:16:02.047Z,9.23
2023-02-06T00:16:57.243Z,9.67
2023-02-06T00:17:49.797Z,9.70
2023-02-06T00:18:44.936Z,9.10
2023-02-06T00:19:38.173Z,9.57
2023-02-06T00:20:33.430Z,9.00
2023-02-06T00:21:27.132Z,9.30
2023-02-06T00:22:22.281Z,9.90
2023-02-06T00:23:15.180Z,9.20
2023-02-06T00:24:12.980Z,9.20
2023-02-06T00:25:06.451Z,9.30
2023-02-06T00:26:01.604Z,9.57
2023-02-06T00:26:54.149Z,8.40
2023-02-06T00:27:49.337Z,9.30
2023-02-06T00:28:41.936Z,9.13
2023-02-06T00:29:37.185Z,9.50
2023-02-06T00:30:29.819Z,8.77
2023-02-06T00:31:25.097Z,8.93
2023-02-06T00:32:17.711Z,8.50
2023-02-06T00:33:12.891Z,8.80
2023-02-06T00:34:05.540Z,9.57
2023-02-06T00:35:00.792Z,8.57
2023-02-06T00:35:53.380Z,8.03
2023-02-06T00:36:48.589Z,8.70
2023-02-06T00:37:41.154Z,7.83
2023-02-06T00:38:36.407Z,8.13
2023-02-06T00:39:31.867Z,8.30
2023-02-06T00:40:28.941Z,8.30
2023-02-06T00:41:21.672Z,8.43
2023-02-06T00:42:19.488Z,9.13
2023-02-06T00:43:12.060Z,8.80
2023-02-06T00:44:07.303Z,8.70
2023-02-06T00:44:59.892Z,7.70
2023-02-06T00:45:52.711Z,8.33
2023-02-06T00:46:47.872Z,8.03
2023-02-06T00:47:40.454Z,8.07
2023-02-06T00:48:35.624Z,8.33
2023-02-06T00:49:29.009Z,7.70
2023-02-06T00:50:21.816Z,8.00
2023-02-06T00:51:16.986Z,7.67
2023-02-06T00:52:09.641Z,8.00
2023-02-06T00:53:04.854Z,7.23
2023-02-06T00:53:57.461Z,7.80
2023-02-06T00:54:55.251Z,7.67
2023-02-06T00:55:48.559Z,8.47
2023-02-06T00:56:43.710Z,7.07
2023-02-06T00:57:36.291Z,8.17
2023-02-06T00:58:31.513Z,7.50
2023-02-06T00:59:24.140Z,8.00
2023-02-06T01:00:19.904Z,7.30
2023-02-06T01:01:12.542Z,7.60
2023-02-06T01:02:07.734Z,7.20
2023-02-06T01:03:00.594Z,7.20
2023-02-06T01:03:55.927Z,6.80
2023-02-06T01:04:48.514Z,8.17
2023-02-06T01:05:43.717Z,7.07
2023-02-06T01:06:36.948Z,8.13
2023-02-06T01:07:32.175Z,7.57
2023-02-06T01:08:24.727Z,6.80
2023-02-06T01:09:20.002Z,7.13
2023-02-06T01:10:15.380Z,7.60
2023-02-06T01:11:14.657Z,6.90
2023-02-06T01:12:07.838Z,6.93
2023-02-06T01:13:03.011Z,6.27
2023-02-06T01:13:55.580Z,6.30
2023-02-06T01:14:50.868Z,8.07
2023-02-06T01:15:43.509Z,7.47
2023-02-06T01:16:38.748Z,6.67
2023-02-06T01:17:32.236Z,7.37
2023-02-06T01:18:27.388Z,7.33
2023-02-06T01:19:19.996Z,7.00
2023-02-06T01:20:16.527Z,8.00
2023-02-06T01:21:09.879Z,7.40
2023-02-06T01:22:05.061Z,6.53
2023-02-06T01:22:57.632Z,6.57
2023-02-06T01:23:53.994Z,6.07
2023-02-06T01:24:46.765Z,6.60
2023-02-06T01:25:44.569Z,6.40
2023-02-06T01:26:37.196Z,6.37
2023-02-06T01:27:32.400Z,5.60
2023-02-06T01:28:24.976Z,6.30
2023-02-06T01:29:20.132Z,5.53
2023-02-06T01:30:13.845Z,6.00
2023-02-06T01:31:13.929Z,6.20
2023-02-06T01:32:06.544Z,5.93
2023-02-06T01:33:01.748Z,6.28
2023-02-06T01:33:54.763Z,6.57
2023-02-06T01:34:49.942Z,6.20
2023-02-06T01:35:42.510Z,5.63
2023-02-06T01:36:35.096Z,6.20
2023-02-06T01:37:32.231Z,6.10
2023-02-06T01:38:25.864Z,5.83
2023-02-06T01:39:21.050Z,6.25
2023-02-06T01:40:15.772Z,6.07
2023-02-06T01:41:14.176Z,6.37
2023-02-06T01:42:06.868Z,5.87
2023-02-06T01:43:02.255Z,5.97
2023-02-06T01:44:10.927Z,5.70
2023-02-06T01:45:30.684Z,5.90
2023-02-06T01:46:23.703Z,4.87
2023-02-06T01:47:18.891Z,5.07
2023-02-06T01:48:18.160Z,4.97
2023-02-06T01:49:18.874Z,4.40
2023-02-06T01:50:11.432Z,4.50
2023-02-06T01:51:08.020Z,4.80
2023-02-06T01:52:04.410Z,4.77
2023-02-06T01:52:59.631Z,5.30
2023-02-06T01:53:56.498Z,4.00
2023-02-06T01:54:55.400Z,4.43
2023-02-06T01:55:48.905Z,5.00
2023-02-06T01:56:49.824Z,4.80
2023-02-06T01:57:43.123Z,4.80
2023-02-06T01:58:40.585Z,4.13
2023-02-06T01:59:33.596Z,4.93
2023-02-06T02:00:28.826Z,4.47
2023-02-06T02:01:21.984Z,4.03
2023-02-06T02:02:17.347Z,4.97
2023-02-06T02:03:10.071Z,4.93
2023-02-06T02:04:08.233Z,4.73
2023-02-06T02:05:02.363Z,4.20
2023-02-06T02:06:02.613Z,4.73
2023-02-06T02:07:02.472Z,4.70
2023-02-06T02:08:01.369Z,4.43
2023-02-06T02:08:58.082Z,4.40
2023-02-06T02:09:53.501Z,4.00
2023-02-06T02:10:46.175Z,3.83
2023-02-06T02:11:43.231Z,3.97
2023-02-06T02:12:38.419Z,4.10
2023-02-06T02:13:34.407Z,3.83
2023-02-06T02:14:27.043Z,3.63
2023-02-06T02:15:22.752Z,3.33
2023-02-06T02:16:19.516Z,4.03
2023-02-06T02:17:25.076Z,4.20
2023-02-06T02:18:29.961Z,3.53
2023-02-06T02:19:58.468Z,3.55
2023-02-06T02:21:21.140Z,3.80
2023-02-06T02:22:42.583Z,3.90
2023-02-06T02:23:42.333Z,3.67
2023-02-06T02:24:53.121Z,3.87
2023-02-06T02:26:05.940Z,5.17
2023-02-06T02:27:19.907Z,4.87
2023-02-06T02:28:33.341Z,3.77
2023-02-06T02:30:07.614Z,4.00
2023-02-06T02:31:34.329Z,4.40
2023-02-06T02:32:43.292Z,4.63
2023-02-06T02:33:47.843Z,4.40
2023-02-06T02:35:08.811Z,4.15
2023-02-06T02:36:07.296Z,4.50
2023-02-06T02:37:06.304Z,3.87
2023-02-06T02:38:05.323Z,4.00
2023-02-06T02:39:09.554Z,3.97
2023-02-06T02:40:08.491Z,3.90
2023-02-06T02:41:07.113Z,3.50
2023-02-06T02:42:06.467Z,3.60
2023-02-06T02:43:10.564Z,3.57
2023-02-06T02:44:06.391Z,4.23
2023-02-06T02:45:08.992Z,3.77
2023-02-06T02:46:07.079Z,3.77
2023-02-06T02:47:05.090Z,3.90
2023-02-06T02:48:01.907Z,3.90
2023-02-06T02:49:00.001Z,3.92
2023-02-06T02:49:55.280Z,3.93
2023-02-06T02:50:50.931Z,4.18
2023-02-06T02:51:43.844Z,3.90
2023-02-06T02:52:39.025Z,3.80
2023-02-06T02:53:31.779Z,4.28
2023-02-06T02:54:27.605Z,4.25
2023-02-06T02:55:22.733Z,4.03
2023-02-06T02:56:24.064Z,3.78
2023-02-06T02:57:20.276Z,3.63
2023-02-06T02:58:19.754Z,4.00
2023-02-06T02:59:14.714Z,4.03
2023-02-06T03:00:12.756Z,3.60
2023-02-06T03:01:11.608Z,3.97
2023-02-06T03:02:08.755Z,3.97
2023-02-06T03:03:01.437Z,4.57
2023-02-06T03:03:55.058Z,3.53
2023-02-06T03:04:53.560Z,4.17
2023-02-06T03:05:54.887Z,3.80
2023-02-06T03:07:16.253Z,3.80
2023-02-06T03:08:15.536Z,3.70
2023-02-06T03:09:16.687Z,3.67
2023-02-06T03:10:15.752Z,3.30
2023-02-06T03:11:16.142Z,3.40
2023-02-06T03:12:13.479Z,3.60
2023-02-06T03:13:15.082Z,3.80
2023-02-06T03:14:12.575Z,3.70
2023-02-06T03:15:12.080Z,3.60
2023-02-06T03:16:09.218Z,4.00
2023-02-06T03:17:08.198Z,3.40
2023-02-06T03:18:03.992Z,4.10
2023-02-06T03:19:03.280Z,4.50
2023-02-06T03:19:58.071Z,4.47
2023-02-06T03:20:56.134Z,4.13
2023-02-06T03:21:49.370Z,4.60
2023-02-06T03:22:45.812Z,4.43
2023-02-06T03:23:40.362Z,4.47
2023-02-06T03:24:39.928Z,3.90
2023-02-06T03:25:36.053Z,4.45
2023-02-06T03:26:32.632Z,4.13
2023-02-06T03:27:26.391Z,4.20
2023-02-06T03:28:23.899Z,3.75
2023-02-06T03:29:17.404Z,3.70
2023-02-06T03:30:15.515Z,4.13
2023-02-06T03:31:10.297Z,4.00
2023-02-06T03:32:08.614Z,4.25
2023-02-06T03:33:04.807Z,3.97
2023-02-06T03:34:00.915Z,3.93
2023-02-06T03:35:00.996Z,3.93
2023-02-06T03:35:58.130Z,4.33
2023-02-06T03:36:53.871Z,4.10
2023-02-06T03:37:46.983Z,4.20
2023-02-06T03:38:42.190Z,3.80
2023-02-06T03:39:34.915Z,4.47
2023-02-06T03:40:31.056Z,4.20
2023-02-06T03:41:25.291Z,4.55
2023-02-06T03:42:20.994Z,4.40
2023-02-06T03:43:18.778Z,4.13
2023-02-06T03:44:16.348Z,4.28
2023-02-06T03:45:14.089Z,4.23
2023-02-06T03:46:12.633Z,4.03
2023-02-06T03:47:06.674Z,4.68
2023-02-06T03:48:05.389Z,4.40
2023-02-06T03:49:00.013Z,3.63
2023-02-06T03:49:55.423Z,3.70
2023-02-06T03:50:50.422Z,3.93
2023-02-06T03:51:51.100Z,3.97
2023-02-06T03:52:46.300Z,3.60
2023-02-06T03:53:42.137Z,3.90
2023-02-06T03:54:37.689Z,3.60
2023-02-06T03:55:33.321Z,4.47
2023-02-06T03:56:29.430Z,3.80
2023-02-06T03:57:25.744Z,3.90
2023-02-06T03:58:18.474Z,4.60
2023-02-06T03:59:13.739Z,4.43
2023-02-06T04:00:07.374Z,3.83
2023-02-06T04:01:08.934Z,4.00
2023-02-06T04:02:03.320Z,4.13
2023-02-06T04:02:59.507Z,3.97
2023-02-06T04:03:53.075Z,4.17
2023-02-06T04:04:48.836Z,4.15
2023-02-06T04:05:41.757Z,3.90
2023-02-06T04:06:36.959Z,4.28
2023-02-06T04:07:34.082Z,3.70
2023-02-06T04:08:29.391Z,4.28
2023-02-06T04:09:22.000Z,3.97
2023-02-06T04:10:17.204Z,3.78
2023-02-06T04:11:09.784Z,3.60
2023-02-06T04:12:04.966Z,4.28
2023-02-06T04:12:57.809Z,3.53
2023-02-06T04:13:52.969Z,3.60
2023-02-06T04:14:45.694Z,4.10
2023-02-06T04:15:38.405Z,4.53
2023-02-06T04:16:33.933Z,4.20
2023-02-06T04:17:43.131Z,3.83
2023-02-06T04:18:38.957Z,3.45
2023-02-06T04:19:31.779Z,3.77
2023-02-06T04:20:26.972Z,4.27
2023-02-06T04:21:19.740Z,3.80
2023-02-06T04:22:17.335Z,4.20
2023-02-06T04:23:12.512Z,4.10
2023-02-06T04:24:08.165Z,3.83
2023-02-06T04:25:00.845Z,3.90
2023-02-06T04:25:56.017Z,3.73
2023-02-06T04:26:48.615Z,4.03
2023-02-06T04:27:43.843Z,3.47
2023-02-06T04:28:36.444Z,4.28
2023-02-06T04:29:31.860Z,3.60
2023-02-06T04:30:24.504Z,4.00
2023-02-06T04:31:19.722Z,3.65
2023-02-06T04:32:12.302Z,3.90
2023-02-06T04:33:07.893Z,3.53
2023-02-06T04:34:00.462Z,4.00
2023-02-06T04:34:55.617Z,4.20
2023-02-06T04:35:48.490Z,4.20
2023-02-06T04:36:43.709Z,4.47
2023-02-06T04:37:37.735Z,4.47
2023-02-06T04:38:35.487Z,4.78
2023-02-06T04:39:28.307Z,3.95
2023-02-06T04:40:23.752Z,4.00
2023-02-06T04:41:16.339Z,3.95
2023-02-06T04:42:11.579Z,4.43
2023-02-06T04:43:04.125Z,3.73
2023-02-06T04:43:59.280Z,4.30
2023-02-06T04:44:51.829Z,4.07
2023-02-06T04:45:47.056Z,4.32
2023-02-06T04:46:39.620Z,3.83
2023-02-06T04:47:34.856Z,3.40
2023-02-06T04:48:27.661Z,3.50
2023-02-06T04:49:22.851Z,4.05
2023-02-06T04:50:15.578Z,3.97
2023-02-06T04:51:10.820Z,3.70
2023-02-06T04:52:03.552Z,3.60
2023-02-06T04:52:58.706Z,4.23
2023-02-06T04:53:53.886Z,3.93
2023-02-06T04:54:49.062Z,3.70
2023-02-06T04:55:41.697Z,3.97
2023-02-06T04:56:37.035Z,3.95
2023-02-06T04:57:29.689Z,3.83
2023-02-06T04:58:24.946Z,3.85
2023-02-06T04:59:17.534Z,3.50
2023-02-06T05:00:14.724Z,3.93
2023-02-06T05:01:07.660Z,4.00
2023-02-06T05:02:03.084Z,4.20
2023-02-06T05:02:55.672Z,3.95
2023-02-06T05:03:51.202Z,3.83
2023-02-06T05:04:43.804Z,4.00
2023-02-06T05:05:39.043Z,3.80
2023-02-06T05:06:31.797Z,4.18
2023-02-06T05:07:27.028Z,4.22
2023-02-06T05:08:19.795Z,4.10
2023-02-06T05:09:18.170Z,4.18
2023-02-06T05:10:10.758Z,4.10
2023-02-06T05:11:05.995Z,3.88
2023-02-06T05:11:58.593Z,3.60
2023-02-06T05:12:56.126Z,4.00
2023-02-06T05:13:48.691Z,4.70
2023-02-06T05:14:43.868Z,4.05
2023-02-06T05:15:37.066Z,3.83
2023-02-06T05:16:32.542Z,3.85
2023-02-06T05:17:25.122Z,3.70
2023-02-06T05:18:20.739Z,4.40
2023-02-06T05:19:13.577Z,4.32
2023-02-06T05:20:10.051Z,4.17
2023-02-06T05:21:02.975Z,3.57
2023-02-06T05:21:58.129Z,4.20
2023-02-06T05:22:50.699Z,4.10
2023-02-06T05:23:45.875Z,4.32
2023-02-06T05:24:41.038Z,4.22
2023-02-06T05:25:37.350Z,4.22
2023-02-06T05:26:30.088Z,3.53
2023-02-06T05:27:25.776Z,4.10
2023-02-06T05:28:18.417Z,3.80
2023-02-06T05:29:13.798Z,4.13
2023-02-06T05:30:07.361Z,3.72
2023-02-06T05:31:02.706Z,4.15
2023-02-06T05:31:55.507Z,3.95
2023-02-06T05:32:50.673Z,3.70
2023-02-06T05:33:43.231Z,4.05
2023-02-06T05:34:38.468Z,3.78
2023-02-06T05:35:31.086Z,3.58
2023-02-06T05:36:26.347Z,3.58
2023-02-06T05:37:19.088Z,3.67
2023-02-06T05:38:14.606Z,3.70
2023-02-06T05:39:07.181Z,3.80
2023-02-06T05:40:04.950Z,3.88
2023-02-06T05:40:57.575Z,4.13
2023-02-06T05:41:52.894Z,3.50
2023-02-06T05:42:45.455Z,4.18
2023-02-06T05:43:40.996Z,3.28
2023-02-06T05:44:33.545Z,3.80
2023-02-06T05:45:28.812Z,3.53
2023-02-06T05:46:21.407Z,4.03
2023-02-06T05:47:16.601Z,4.00
2023-02-06T05:48:09.203Z,4.35
2023-02-06T05:49:04.620Z,3.65
2023-02-06T05:49:57.210Z,4.20
2023-02-06T05:50:52.841Z,4.07
2023-02-06T05:51:45.520Z,4.20
2023-02-06T05:52:40.692Z,4.88
2023-02-06T05:53:33.279Z,4.00
2023-02-06T05:54:28.524Z,3.83
2023-02-06T05:55:23.667Z,3.92
2023-02-06T05:56:18.829Z,3.58
2023-02-06T05:57:11.549Z,4.10
2023-02-06T05:58:06.708Z,3.92
2023-02-06T05:58:59.469Z,4.15
2023-02-06T05:59:54.631Z,3.97
2023-02-06T06:00:47.207Z,3.70
2023-02-06T06:01:42.379Z,4.00
2023-02-06T06:02:34.994Z,4.20
2023-02-06T06:03:33.071Z,3.70
2023-02-06T06:04:26.332Z,4.15
2023-02-06T06:05:21.634Z,4.95
2023-02-06T06:06:14.207Z,4.55
2023-02-06T06:07:09.541Z,4.63
2023-02-06T06:08:02.155Z,4.63
2023-02-06T06:08:57.319Z,4.53
2023-02-06T06:09:49.964Z,4.53
2023-02-06T06:10:47.722Z,4.60
2023-02-06T06:11:40.315Z,4.50
2023-02-06T06:12:35.514Z,4.27
2023-02-06T06:13:28.059Z,4.20
2023-02-06T06:14:23.223Z,3.72
2023-02-06T06:15:16.201Z,3.70
2023-02-06T06:16:11.422Z,4.35
2023-02-06T06:17:04.038Z,4.20
2023-02-06T06:17:59.204Z,3.77
2023-02-06T06:18:51.874Z,3.93
2023-02-06T06:19:47.066Z,4.60
2023-02-06T06:20:42.495Z,3.70
2023-02-06T06:21:37.689Z,4.03
2023-02-06T06:22:30.235Z,3.58
2023-02-06T06:23:25.414Z,4.28
2023-02-06T06:24:18.079Z,5.57
2023-02-06T06:25:13.277Z,6.00
2023-02-06T06:26:08.564Z,9.00
2023-02-06T06:27:04.064Z,8.77
2023-02-06T06:27:56.641Z,8.37
2023-02-06T06:28:51.932Z,9.70
2023-02-06T06:29:44.526Z,10.70
2023-02-06T06:30:40.354Z,9.07
2023-02-06T06:31:33.031Z,9.13
2023-02-06T06:32:28.213Z,13.63
2023-02-06T06:33:20.755Z,12.50
2023-02-06T06:34:16.086Z,15.33
2023-02-06T06:35:09.195Z,12.07
2023-02-06T06:36:04.359Z,11.37
2023-02-06T06:36:56.926Z,12.47
2023-02-06T06:37:52.116Z,11.73
2023-02-06T06:38:44.753Z,11.90
2023-02-06T06:39:39.912Z,12.30
2023-02-06T06:40:32.470Z,12.07
2023-02-06T06:41:30.507Z,11.37
2023-02-06T06:42:23.162Z,11.20
2023-02-06T06:43:18.353Z,10.82
2023-02-06T06:44:10.940Z,12.07
2023-02-06T06:45:06.520Z,12.10
2023-02-06T06:46:00.568Z,11.97
2023-02-06T06:46:55.818Z,11.57
2023-02-06T06:47:48.437Z,11.27
2023-02-06T06:48:43.615Z,12.30
2023-02-06T06:49:36.188Z,11.27
2023-02-06T06:50:31.362Z,11.45
2023-02-06T06:51:24.043Z,11.43
2023-02-06T06:52:24.787Z,10.47
2023-02-06T06:53:18.494Z,10.80
2023-02-06T06:54:14.567Z,10.95
2023-02-06T06:55:07.771Z,10.27
2023-02-06T06:56:06.286Z,11.50
2023-02-06T06:57:01.463Z,11.10
2023-02-06T06:57:56.780Z,11.68
2023-02-06T06:58:50.265Z,10.88
2023-02-06T06:59:45.437Z,10.40
2023-02-06T07:00:38.787Z,10.82
2023-02-06T07:01:34.000Z,11.85
2023-02-06T07:02:28.582Z,11.50
2023-02-06T07:03:23.970Z,11.98
2023-02-06T07:04:16.562Z,11.73
2023-02-06T07:05:12.004Z,12.88
2023-02-06T07:06:04.793Z,13.07
2023-02-06T07:07:00.035Z,11.88
2023-02-06T07:07:52.658Z,11.93
2023-02-06T07:08:47.857Z,12.82
2023-02-06T07:09:40.437Z,10.98
2023-02-06T07:10:35.636Z,12.13
2023-02-06T07:11:28.260Z,12.95
2023-02-06T07:12:26.077Z,13.68
2023-02-06T07:13:18.684Z,11.90
2023-02-06T07:14:13.846Z,11.20
2023-02-06T07:15:07.433Z,11.40
2023-02-06T07:16:02.735Z,13.60
2023-02-06T07:16:56.476Z,12.07
2023-02-06T07:17:51.760Z,12.70
2023-02-06T07:18:44.332Z,12.38
2023-02-06T07:19:39.540Z,12.43
2023-02-06T07:20:32.100Z,12.93
2023-02-06T07:21:27.308Z,12.07
2023-02-06T07:22:20.251Z,12.18
2023-02-06T07:23:15.543Z,12.63
2023-02-06T07:24:08.663Z,11.82
2023-02-06T07:25:03.831Z,14.00
2023-02-06T07:25:56.691Z,11.70
2023-02-06T07:26:51.853Z,12.00
2023-02-06T07:27:47.047Z,12.40
2023-02-06T07:28:42.377Z,12.98
2023-02-06T07:29:35.003Z,11.50
2023-02-06T07:30:30.490Z,12.70
2023-02-06T07:31:23.144Z,12.23
2023-02-06T07:32:18.332Z,12.40
2023-02-06T07:33:11.039Z,12.15
2023-02-06T07:34:06.209Z,10.70
2023-02-06T07:34:58.780Z,11.57
2023-02-06T07:35:53.961Z,11.20
2023-02-06T07:36:46.537Z,11.50
2023-02-06T07:37:41.697Z,12.02
2023-02-06T07:38:34.251Z,11.30
2023-02-06T07:39:29.545Z,10.50
2023-02-06T07:40:22.229Z,11.05
2023-02-06T07:41:18.119Z,11.75
2023-02-06T07:42:12.058Z,11.10
2023-02-06T07:43:29.213Z,11.43
2023-02-06T07:44:24.407Z,11.05
2023-02-06T07:45:17.264Z,11.73
2023-02-06T07:46:12.504Z,11.15
2023-02-06T07:47:05.874Z,10.63
2023-02-06T07:48:01.557Z,11.32
2023-02-06T07:48:54.272Z,10.32
2023-02-06T07:49:49.627Z,11.30
2023-02-06T07:50:42.202Z,10.82
2023-02-06T07:51:37.371Z,10.20
2023-02-06T07:52:30.032Z,11.10
2023-02-06T07:53:25.268Z,14.60
2023-02-06T07:54:19.922Z,9.65
2023-02-06T07:55:15.917Z,10.20
2023-02-06T07:56:11.277Z,10.70
2023-02-06T07:57:06.487Z,9.60
2023-02-06T07:57:59.108Z,9.77
2023-02-06T07:58:57.890Z,9.63
2023-02-06T07:59:50.457Z,9.55
2023-02-06T08:00:46.018Z,9.20
2023-02-06T08:01:41.199Z,10.38
2023-02-06T08:02:33.800Z,10.57
2023-02-06T08:03:29.082Z,9.52
2023-02-06T08:04:21.680Z,10.38
2023-02-06T08:05:16.895Z,9.93
2023-02-06T08:06:10.345Z,9.77
2023-02-06T08:07:06.113Z,10.45
2023-02-06T08:07:58.784Z,9.45
2023-02-06T08:08:54.338Z,9.95
2023-02-06T08:09:47.007Z,10.50
2023-02-06T08:10:42.624Z,9.80
2023-02-06T08:11:36.000Z,9.45
2023-02-06T08:12:32.667Z,9.43
2023-02-06T08:13:25.269Z,8.85
2023-02-06T08:14:23.097Z,11.02
2023-02-06T08:15:15.993Z,12.00
2023-02-06T08:16:13.859Z,10.80
2023-02-06T08:17:07.796Z,8.95
2023-02-06T08:18:02.941Z,9.30
2023-02-06T08:18:55.519Z,9.05
2023-02-06T08:19:51.528Z,10.07
2023-02-06T08:20:44.101Z,9.57
2023-02-06T08:21:39.643Z,8.93
2023-02-06T08:22:32.257Z,8.50
2023-02-06T08:23:27.422Z,9.18
2023-02-06T08:24:22.593Z,8.43
2023-02-06T08:25:15.240Z,8.93
2023-02-06T08:26:12.113Z,8.60
2023-02-06T08:27:07.433Z,8.30
2023-02-06T08:28:00.046Z,8.70
2023-02-06T08:28:55.355Z,9.43
2023-02-06T08:29:51.839Z,8.95
2023-02-06T08:30:47.270Z,9.50
2023-02-06T08:31:41.349Z,9.77
2023-02-06T08:32:37.748Z,9.43
2023-02-06T08:33:30.336Z,10.02
2023-02-06T08:34:25.608Z,8.52
2023-02-06T08:35:18.391Z,8.18
2023-02-06T08:36:14.540Z,10.77
2023-02-06T08:37:09.927Z,13.30
2023-02-06T08:38:02.494Z,9.20
2023-02-06T08:38:57.643Z,8.50
2023-02-06T08:39:50.317Z,8.70
2023-02-06T08:40:45.468Z,9.13
2023-02-06T08:41:42.205Z,9.73
2023-02-06T08:42:34.797Z,10.15
2023-02-06T08:43:31.597Z,9.93
2023-02-06T08:44:25.569Z,8.52
2023-02-06T08:45:23.428Z,8.30
2023-02-06T08:46:17.088Z,9.20
2023-02-06T08:47:12.278Z,8.10
2023-02-06T08:48:04.901Z,8.77
2023-02-06T08:49:00.852Z,8.65
2023-02-06T08:49:54.769Z,8.10
2023-02-06T08:50:49.973Z,8.10
2023-02-06T08:51:45.315Z,8.57
2023-02-06T08:52:37.998Z,7.13
2023-02-06T08:53:33.169Z,7.53
2023-02-06T08:54:25.760Z,7.70
2023-02-06T08:55:21.044Z,7.15
2023-02-06T08:56:20.526Z,8.07
2023-02-06T08:57:13.164Z,7.20
2023-02-06T08:58:08.747Z,7.25
2023-02-06T08:59:02.117Z,8.07
2023-02-06T08:59:57.303Z,7.63
2023-02-06T09:00:52.727Z,8.35
2023-02-06T09:01:49.413Z,6.95
2023-02-06T09:02:42.119Z,6.22
2023-02-06T09:03:37.546Z,6.72
2023-02-06T09:04:35.449Z,6.88
2023-02-06T09:05:28.283Z,7.00
2023-02-06T09:06:23.460Z,7.78
2023-02-06T09:07:18.780Z,7.78
2023-02-06T09:08:11.396Z,7.28
2023-02-06T09:09:08.154Z,7.57
2023-02-06T09:10:03.310Z,7.03
2023-02-06T09:10:55.980Z,7.25
2023-02-06T09:11:51.338Z,7.18
2023-02-06T09:12:46.551Z,6.70
2023-02-06T09:13:39.685Z,6.47
2023-02-06T09:14:35.529Z,7.20
2023-02-06T09:15:28.100Z,7.32
2023-02-06T09:16:26.148Z,6.45
2023-02-06T09:17:21.364Z,7.15
2023-02-06T09:18:13.936Z,6.35
2023-02-06T09:19:09.818Z,7.30
2023-02-06T09:20:03.037Z,6.55
2023-02-06T09:21:06.852Z,6.60
2023-02-06T09:22:02.029Z,7.03
2023-02-06T09:22:54.623Z,6.18
2023-02-06T09:23:52.058Z,6.90
2023-02-06T09:24:47.245Z,6.97
2023-02-06T09:25:42.461Z,6.03
2023-02-06T09:26:53.540Z,6.88
2023-02-06T09:27:52.445Z,6.25
2023-02-06T09:28:45.285Z,6.50
2023-02-06T09:29:40.477Z,6.70
2023-02-06T09:30:33.045Z,7.22
2023-02-06T09:31:32.944Z,6.75
2023-02-06T09:32:28.222Z,6.18
2023-02-06T09:33:23.804Z,6.13
2023-02-06T09:34:16.384Z,6.68
2023-02-06T09:35:11.856Z,6.47
2023-02-06T09:36:06.524Z,6.38
2023-02-06T09:37:01.733Z,6.10
2023-02-06T09:37:54.528Z,6.45
2023-02-06T09:38:50.897Z,6.65
2023-02-06T09:39:46.079Z,6.88
2023-02-06T09:40:38.971Z,6.30
2023-02-06T09:41:37.115Z,6.80
2023-02-06T09:42:34.976Z,6.20
2023-02-06T09:43:28.072Z,5.85
2023-02-06T09:44:25.630Z,6.00
2023-02-06T09:45:23.094Z,5.85
2023-02-06T09:46:16.258Z,5.60
2023-02-06T09:47:21.041Z,5.57
2023-02-06T09:48:17.031Z,5.38
2023-02-06T09:49:17.732Z,5.43
2023-02-06T09:50:22.964Z,5.88
2023-02-06T09:51:19.798Z,6.60
2023-02-06T09:52:42.928Z,5.90
2023-02-06T09:53:43.032Z,5.80
2023-02-06T09:54:47.420Z,5.28
2023-02-06T09:55:45.341Z,6.00
2023-02-06T09:56:42.761Z,5.60
2023-02-06T09:57:43.948Z,6.03
2023-02-06T09:58:45.274Z,5.85
2023-02-06T09:59:45.130Z,6.10
2023-02-06T10:00:46.527Z,5.93
2023-02-06T10:01:44.287Z,5.43
2023-02-06T10:02:53.578Z,5.13
2023-02-06T10:04:05.725Z,5.22
2023-02-06T10:05:04.628Z,5.25
2023-02-06T10:06:11.607Z,6.50
2023-02-06T10:07:19.747Z,4.80
2023-02-06T10:08:25.571Z,5.47
2023-02-06T10:09:20.885Z,5.63
2023-02-06T10:10:19.239Z,5.43
2023-02-06T10:11:16.507Z,4.28
2023-02-06T10:12:16.105Z,4.10
2023-02-06T10:13:13.712Z,5.28
2023-02-06T10:14:14.081Z,4.53
2023-02-06T10:15:14.883Z,4.18
2023-02-06T10:16:13.304Z,4.40
2023-02-06T10:17:15.686Z,4.13
2023-02-06T10:18:15.612Z,5.60
2023-02-06T10:19:16.761Z,4.80
2023-02-06T10:20:13.190Z,4.50
2023-02-06T10:21:13.271Z,4.25
2023-02-06T10:22:09.794Z,3.23
2023-02-06T10:23:09.845Z,3.95
2023-02-06T10:24:07.451Z,4.00
2023-02-06T10:25:17.651Z,3.90
2023-02-06T10:26:17.138Z,7.13
2023-02-06T10:27:15.239Z,6.80
2023-02-06T10:28:22.685Z,6.50
2023-02-06T10:29:22.605Z,9.00
2023-02-06T10:30:20.186Z,6.10
2023-02-06T10:31:53.732Z,4.50
2023-02-06T10:32:55.872Z,4.30
2023-02-06T10:34:08.673Z,3.50
2023-02-06T10:35:10.650Z,3.77
2023-02-06T10:36:10.217Z,3.20
2023-02-06T10:37:35.843Z,3.13
2023-02-06T10:38:54.040Z,3.67
2023-02-06T10:39:57.684Z,3.50
2023-02-06T10:40:55.474Z,3.60
2023-02-06T10:41:55.760Z,4.53
2023-02-06T10:42:56.780Z,3.87
2023-02-06T10:43:53.259Z,3.70
2023-02-06T10:44:54.709Z,3.77
2023-02-06T10:45:52.342Z,4.37
2023-02-06T10:46:48.938Z,3.70
2023-02-06T10:47:47.872Z,3.60
2023-02-06T10:48:45.557Z,3.90
2023-02-06T10:49:48.293Z,3.47
2023-02-06T10:50:44.287Z,3.03
2023-02-06T10:51:42.658Z,5.00
2023-02-06T10:52:35.935Z,3.00
2023-02-06T10:53:33.858Z,3.57
2023-02-06T10:54:31.528Z,4.40
2023-02-06T10:55:29.071Z,4.60
2023-02-06T10:56:26.635Z,3.37
2023-02-06T10:57:25.015Z,3.77
2023-02-06T10:58:20.934Z,3.40
2023-02-06T10:59:23.104Z,3.40
2023-02-06T11:00:21.710Z,3.20
2023-02-06T11:01:26.033Z,3.77
2023-02-06T11:02:24.911Z,3.60
2023-02-06T11:03:20.323Z,4.60
2023-02-06T11:04:18.714Z,3.50
2023-02-06T11:05:19.302Z,3.50
2023-02-06T11:06:14.171Z,3.57
2023-02-06T11:07:12.133Z,3.13
2023-02-06T11:08:13.912Z,3.80
2023-02-06T11:09:09.148Z,4.53
2023-02-06T11:10:01.713Z,3.97
2023-02-06T11:10:57.471Z,3.17
2023-02-06T11:11:51.434Z,3.90
2023-02-06T11:12:49.978Z,4.73
2023-02-06T11:13:45.338Z,5.00
2023-02-06T11:14:39.559Z,4.30
2023-02-06T11:15:37.404Z,4.13
2023-02-06T11:16:35.501Z,3.30
2023-02-06T11:17:28.603Z,3.47
2023-02-06T11:18:27.356Z,3.53
2023-02-06T11:19:30.356Z,3.73
2023-02-06T11:20:32.085Z,3.60
2023-02-06T11:21:55.595Z,3.47
2023-02-06T11:22:52.995Z,3.53
2023-02-06T11:23:48.424Z,3.33
2023-02-06T11:24:59.629Z,3.77
2023-02-06T11:26:10.677Z,3.90
2023-02-06T11:27:11.783Z,4.07
2023-02-06T11:28:07.319Z,3.63
2023-02-06T11:29:08.915Z,3.93
2023-02-06T11:30:10.581Z,4.13
2023-02-06T11:31:04.994Z,3.60
2023-02-06T11:32:01.910Z,3.13
2023-02-06T11:33:04.357Z,3.30
2023-02-06T11:34:00.183Z,3.50
2023-02-06T11:34:55.638Z,3.40
2023-02-06T11:35:56.489Z,3.23
2023-02-06T11:36:53.022Z,3.53
2023-02-06T11:37:48.278Z,3.20
2023-02-06T11:38:57.154Z,3.90
2023-02-06T11:39:49.723Z,3.67
2023-02-06T11:40:44.976Z,4.40
2023-02-06T11:41:37.609Z,3.50
2023-02-06T11:42:33.211Z,3.30
2023-02-06T11:43:30.021Z,3.57
2023-02-06T11:44:24.900Z,3.20
2023-02-06T11:45:28.791Z,2.97
2023-02-06T11:46:27.485Z,3.60
2023-02-06T11:47:25.051Z,2.80
2023-02-06T11:48:39.401Z,3.17
2023-02-06T11:49:32.058Z,3.33
2023-02-06T11:50:29.685Z,3.10
2023-02-06T11:51:28.150Z,3.50
2023-02-06T11:52:32.237Z,3.20
2023-02-06T11:53:27.428Z,3.37
2023-02-06T11:54:27.451Z,3.20
2023-02-06T11:55:27.481Z,3.40
2023-02-06T11:56:20.841Z,3.10
2023-02-06T11:57:23.923Z,3.73
2023-02-06T11:58:22.032Z,4.80
2023-02-06T11:59:23.323Z,5.00
2023-02-06T12:00:21.885Z,6.53
2023-02-06T12:01:22.759Z,5.90
2023-02-06T12:02:29.290Z,5.70
2023-02-06T12:03:37.081Z,4.20
2023-02-06T12:04:32.616Z,3.17
2023-02-06T12:05:30.925Z,2.63
2023-02-06T12:06:30.476Z,2.63
2023-02-06T12:07:30.664Z,3.03
2023-02-06T12:08:23.821Z,2.67
2023-02-06T12:09:19.352Z,2.93
2023-02-06T12:10:14.741Z,2.43
2023-02-06T12:11:15.557Z,2.70
2023-02-06T12:12:19.817Z,2.57
2023-02-06T12:13:20.655Z,2.87
2023-02-06T12:14:20.276Z,2.80
2023-02-06T12:15:43.692Z,2.27
2023-02-06T12:16:36.799Z,2.33
2023-02-06T12:17:36.777Z,2.47
2023-02-06T12:18:31.689Z,2.10
2023-02-06T12:19:31.796Z,2.83
2023-02-06T12:20:28.508Z,2.67
2023-02-06T12:21:33.409Z,2.40
2023-02-06T12:22:26.919Z,2.53
2023-02-06T12:23:25.974Z,2.47
2023-02-06T12:24:24.516Z,2.60
2023-02-06T12:25:29.432Z,2.73
2023-02-06T12:26:25.819Z,2.60
2023-02-06T12:27:24.229Z,2.57
2023-02-06T12:28:18.381Z,2.40
2023-02-06T12:29:18.038Z,2.90